Terminal Aerodrome Forecast
Issued by NWS Rapid City, SD

Home | Current Version | Previous Version | Text Only | Print | Product List | Glossary On
Versions: 1 2 3 4 5 6 7 8 9 10 11 12 13 14
026
FTUS43 KUNR 070520
TAFRAP
TAF
KRAP 070520Z 0706/0806 32022G32KT P6SM BKN150
     FM071500 32040G55KT P6SM FEW150=

USA.gov is the U.S. government's official web portal to all federal, state and local government web resources and services.